Time;durP1;ratioP1;P1;durP2;ratioP2;P2;SDS_P1;SDS_P2;PMS_P1;PMS_P2;Temp;Humidity;BMP_temperature;BMP_pressure;BME280_temperature;BME280_humidity;BME280_pressure;Samples;Min_cycle;Max_cycle;Signal;HPM_P1;HPM_P2
2023/01/29 00:02:25;;;;;;;9.27;6.82;;;4.30;99.90;;;;;;5114697;28;20032;-71
2023/01/29 00:04:50;;;;;;;11.18;6.85;;;4.20;99.90;;;;;;5113887;28;20074;-71
2023/01/29 00:07:16;;;;;;;10.43;7.10;;;4.30;99.90;;;;;;5112675;28;20039;-71
2023/01/29 00:09:41;;;;;;;10.75;6.85;;;4.40;99.90;;;;;;5112805;28;20092;-71
2023/01/29 00:12:10;;;;;;;11.77;6.78;;;4.40;99.90;;;;;;5083981;28;20102;-71
2023/01/29 00:14:35;;;;;;;12.38;8.75;;;4.30;99.90;;;;;;5072185;28;20505;-71
2023/01/29 00:17:01;;;;;;;15.00;7.65;;;4.50;99.90;;;;;;5072209;28;20054;-71
2023/01/29 00:19:26;;;;;;;12.68;6.57;;;4.20;99.90;;;;;;5072318;28;20043;-71
2023/01/29 00:21:52;;;;;;;11.52;6.95;;;4.20;99.90;;;;;;5073573;28;20040;-71
2023/01/29 00:24:18;;;;;;;11.30;6.78;;;4.30;99.90;;;;;;5073356;28;20040;-71
2023/01/29 00:26:43;;;;;;;14.15;7.80;;;4.50;99.90;;;;;;5072238;28;20032;-71
2023/01/29 00:29:09;;;;;;;11.60;7.45;;;4.40;99.90;;;;;;5071778;28;20040;-71
2023/01/29 00:31:35;;;;;;;11.90;7.60;;;4.30;99.90;;;;;;5073528;28;20101;-71
2023/01/29 00:34:00;;;;;;;14.50;7.43;;;4.40;99.90;;;;;;5073290;28;20043;-71
2023/01/29 00:36:26;;;;;;;12.93;8.02;;;4.30;99.90;;;;;;5071977;28;20175;-71
2023/01/29 00:39:01;;;;;;;12.68;7.13;;;4.30;99.90;;;;;;5071429;28;20190;-71
2023/01/29 00:46:58;;;;;;;11.20;8.00;;;4.40;99.90;;;;;;5072566;28;20101;-70
2023/01/29 00:49:24;;;;;;;13.73;8.70;;;4.40;99.90;;;;;;5072721;28;20048;-71
2023/01/29 00:54:35;;;;;;;18.02;10.70;;;4.30;99.90;;;;;;5071459;28;20040;-71
2023/01/29 00:57:02;;;;;;;15.00;8.68;;;4.50;99.90;;;;;;5071168;28;20037;-71
2023/01/29 00:59:28;;;;;;;15.75;9.98;;;4.40;99.90;;;;;;5071342;28;20045;-71
2023/01/29 01:04:37;;;;;;;16.05;10.00;;;4.30;99.90;;;;;;5071483;28;20048;-71
2023/01/29 01:07:03;;;;;;;18.25;10.57;;;4.30;99.90;;;;;;5071537;28;20036;-71
2023/01/29 01:12:13;;;;;;;17.80;10.60;;;4.40;99.90;;;;;;5071281;28;20080;-71
2023/01/29 01:14:41;;;;;;;15.85;10.80;;;4.30;99.90;;;;;;5071094;28;20095;-71
2023/01/29 01:17:07;;;;;;;15.95;10.88;;;4.50;99.90;;;;;;5070279;28;20064;-71
2023/01/29 01:19:33;;;;;;;21.70;11.68;;;4.40;99.90;;;;;;5071117;28;20048;-71
2023/01/29 01:21:59;;;;;;;17.45;10.52;;;4.40;99.90;;;;;;5071134;28;20413;-71
2023/01/29 01:24:24;;;;;;;19.85;12.20;;;4.50;99.90;;;;;;5071375;28;20040;-71
2023/01/29 01:26:50;;;;;;;19.45;12.57;;;4.30;99.90;;;;;;5071760;28;20047;-71
2023/01/29 01:29:15;;;;;;;19.33;11.80;;;4.30;99.90;;;;;;5071190;28;20118;-71
2023/01/29 01:31:41;;;;;;;22.92;12.10;;;4.30;99.90;;;;;;5070806;28;20575;-71
2023/01/29 01:34:06;;;;;;;21.33;12.23;;;4.50;99.90;;;;;;5072149;28;20144;-71
2023/01/29 01:36:32;;;;;;;16.63;11.55;;;4.50;99.90;;;;;;5070584;28;20037;-71
2023/01/29 01:38:58;;;;;;;19.70;12.07;;;4.30;99.90;;;;;;5071807;28;20102;-71
2023/01/29 01:41:24;;;;;;;19.30;12.40;;;4.50;99.90;;;;;;5070574;28;20068;-71
2023/01/29 01:44:01;;;;;;;18.77;11.98;;;4.50;99.90;;;;;;5071905;28;20037;-71
2023/01/29 01:46:33;;;;;;;18.10;13.13;;;4.40;99.90;;;;;;5071752;28;20044;-71
2023/01/29 01:49:09;;;;;;;19.73;12.60;;;4.50;99.90;;;;;;5071653;28;20040;-71
2023/01/29 01:51:42;;;;;;;22.60;14.07;;;4.40;99.90;;;;;;5071686;28;20044;-71
2023/01/29 01:54:13;;;;;;;21.85;13.65;;;4.40;99.90;;;;;;5072062;28;20079;-71
2023/01/29 01:56:43;;;;;;;27.48;14.35;;;4.40;99.90;;;;;;5070330;28;20049;-71
2023/01/29 01:59:13;;;;;;;21.27;14.20;;;4.50;99.90;;;;;;5071405;28;20047;-71
2023/01/29 02:01:41;;;;;;;20.63;12.85;;;4.60;99.90;;;;;;5071530;28;20552;-71
2023/01/29 02:09:52;;;;;;;21.15;13.43;;;4.40;99.90;;;;;;5071518;28;20563;-70
2023/01/29 02:12:18;;;;;;;24.10;14.52;;;4.60;99.90;;;;;;5071449;28;20120;-71
2023/01/29 02:14:44;;;;;;;22.83;14.25;;;4.60;99.90;;;;;;5070295;28;20466;-71
2023/01/29 02:17:13;;;;;;;21.17;14.18;;;4.60;99.90;;;;;;5069560;28;20045;-71
2023/01/29 02:20:10;;;;;;;22.60;14.80;;;4.40;99.90;;;;;;5071340;28;20405;-71
2023/01/29 02:23:25;;;;;;;27.80;14.85;;;4.50;99.90;;;;;;5071203;28;20419;-71
2023/01/29 02:26:00;;;;;;;25.10;14.63;;;4.50;99.90;;;;;;5059563;28;20044;-71
2023/01/29 02:29:21;;;;;;;24.00;15.32;;;4.60;99.90;;;;;;5073404;28;20040;-71
2023/01/29 02:32:07;;;;;;;27.33;16.63;;;4.60;99.90;;;;;;5055777;28;20052;-71
2023/01/29 02:37:49;;;;;;;28.33;17.92;;;4.50;99.90;;;;;;5073666;28;20051;-71
2023/01/29 02:40:44;;;;;;;35.33;19.95;;;4.60;99.90;;;;;;5073802;28;20414;-71
2023/01/29 02:43:34;;;;;;;32.22;19.50;;;4.40;99.90;;;;;;5073707;28;20048;-70
2023/01/29 02:46:18;;;;;;;33.15;19.98;;;4.60;99.90;;;;;;5073618;28;20150;-70
2023/01/29 02:48:58;;;;;;;28.50;18.58;;;4.60;99.90;;;;;;5074708;28;20074;-70
2023/01/29 02:51:48;;;;;;;32.83;18.92;;;4.60;99.90;;;;;;5075037;28;20040;-71
2023/01/29 02:54:31;;;;;;;30.80;18.90;;;4.40;99.90;;;;;;5074874;28;20048;-71
2023/01/29 02:57:08;;;;;;;29.38;19.60;;;4.60;99.90;;;;;;5073278;28;20350;-71
2023/01/29 02:59:43;;;;;;;34.28;19.92;;;4.50;99.90;;;;;;5074700;28;20505;-70
2023/01/29 03:02:17;;;;;;;27.77;18.77;;;4.40;99.90;;;;;;5074520;28;20128;-70
2023/01/29 03:04:48;;;;;;;32.78;19.63;;;4.50;99.90;;;;;;5074646;28;20045;-71
2023/01/29 03:07:44;;;;;;;33.20;18.90;;;4.50;99.90;;;;;;5074498;28;20063;-71
2023/01/29 03:10:29;;;;;;;30.65;19.83;;;4.60;99.90;;;;;;5074602;28;20044;-71
2023/01/29 03:13:09;;;;;;;32.63;19.05;;;4.60;99.90;;;;;;5073247;28;20051;-71
2023/01/29 03:15:45;;;;;;;28.60;19.13;;;4.40;99.90;;;;;;5074372;28;20036;-71
2023/01/29 03:18:16;;;;;;;30.17;19.08;;;4.60;99.90;;;;;;5074207;28;20071;-71
2023/01/29 03:20:48;;;;;;;29.33;19.55;;;4.40;99.90;;;;;;5074472;28;20041;-70
2023/01/29 03:32:06;;;;;;;28.25;18.35;;;4.40;99.90;;;;;;5074227;28;20105;-71
2023/01/29 03:34:48;;;;;;;26.15;18.35;;;4.40;99.90;;;;;;5074083;28;20036;-71
2023/01/29 03:37:27;;;;;;;28.25;18.23;;;4.50;99.90;;;;;;5073448;28;20047;-71
2023/01/29 03:39:53;;;;;;;28.90;17.85;;;4.60;99.90;;;;;;5086926;28;20047;-70
2023/01/29 03:42:21;;;;;;;29.20;17.98;;;4.50;99.90;;;;;;5093246;28;20412;-70
2023/01/29 03:44:59;;;;;;;29.48;18.75;;;4.40;99.90;;;;;;5094101;28;20507;-71
2023/01/29 03:48:06;;;;;;;31.77;19.95;;;4.40;99.90;;;;;;5094053;28;20039;-71
2023/01/29 03:50:53;;;;;;;28.25;18.60;;;4.60;99.90;;;;;;5072847;28;20091;-71
2023/01/29 03:53:46;;;;;;;26.23;17.83;;;4.60;99.90;;;;;;5094206;28;20400;-71
2023/01/29 03:56:32;;;;;;;30.08;19.58;;;4.70;99.90;;;;;;5093131;28;20514;-71
2023/01/29 03:59:13;;;;;;;27.83;18.90;;;4.50;99.90;;;;;;5092193;28;20576;-70
2023/01/29 04:01:46;;;;;;;27.73;18.77;;;4.50;99.90;;;;;;5093730;28;20043;-71
2023/01/29 04:04:21;;;;;;;29.65;19.35;;;4.60;99.90;;;;;;5076051;28;20079;-71
2023/01/29 04:06:49;;;;;;;29.30;19.20;;;4.50;99.90;;;;;;5093697;28;20121;-70
2023/01/29 04:09:36;;;;;;;30.98;20.27;;;4.50;99.90;;;;;;5093432;28;20044;-70
2023/01/29 04:12:08;;;;;;;30.17;18.70;;;4.50;99.90;;;;;;5092234;28;20079;-71
2023/01/29 04:14:35;;;;;;;31.88;19.23;;;4.60;99.90;;;;;;5093551;28;20036;-71
2023/01/29 04:17:08;;;;;;;26.88;17.92;;;4.70;99.90;;;;;;5127247;22;20044;-76
2023/01/29 04:19:34;;;;;;;30.80;20.02;;;4.60;99.90;;;;;;5112909;28;20031;-75
2023/01/29 04:22:09;;;;;;;31.65;19.85;;;4.70;99.90;;;;;;5111521;28;20038;-76
2023/01/29 04:24:36;;;;;;;29.42;20.80;;;4.60;99.90;;;;;;5113050;28;20037;-76
2023/01/29 04:27:19;;;;;;;29.48;18.75;;;4.60;99.90;;;;;;5112580;28;20050;-76
2023/01/29 04:29:56;;;;;;;;;;;4.60;99.90;;;;;;5113324;28;20172;-75
2023/01/29 04:32:26;;;;;;;27.92;18.55;;;4.60;99.90;;;;;;5112785;28;19927;-76
2023/01/29 04:35:00;;;;;;;33.30;19.67;;;4.60;99.90;;;;;;5112686;28;20466;-76
2023/01/29 04:37:37;;;;;;;29.58;18.38;;;4.60;99.90;;;;;;5112380;28;20050;-76
2023/01/29 04:40:12;;;;;;;27.17;18.52;;;4.70;99.90;;;;;;5095653;28;20043;-76
2023/01/29 04:42:58;;;;;;;33.65;19.67;;;4.70;99.90;;;;;;5112202;28;20075;-76
2023/01/29 04:45:47;;;;;;;31.33;19.02;;;4.60;99.90;;;;;;5113824;28;20027;-76
2023/01/29 04:48:29;;;;;;;30.40;19.23;;;4.70;99.90;;;;;;5112176;28;20036;-75
2023/01/29 04:50:56;;;;;;;30.52;18.88;;;4.60;99.90;;;;;;5113352;28;20404;-76
2023/01/29 04:53:34;;;;;;;31.95;19.52;;;4.50;99.90;;;;;;5113624;28;20401;-76
2023/01/29 04:56:20;;;;;;;33.05;20.38;;;4.70;99.90;;;;;;5095110;28;20036;-76
2023/01/29 04:58:53;;;;;;;35.63;21.17;;;4.50;99.90;;;;;;5111883;28;20031;-75
2023/01/29 05:01:21;;;;;;;35.20;20.55;;;4.60;99.90;;;;;;5112772;28;20043;-76
2023/01/29 05:03:50;;;;;;;34.25;21.63;;;4.50;99.90;;;;;;5113511;28;20035;-76
2023/01/29 05:06:17;;;;;;;37.05;22.35;;;4.70;99.90;;;;;;5113313;28;20062;-76
2023/01/29 05:08:44;;;;;;;38.28;22.88;;;4.60;99.90;;;;;;5113110;28;20040;-76
2023/01/29 05:11:10;;;;;;;38.70;23.73;;;4.40;99.90;;;;;;5113103;28;20032;-76
2023/01/29 05:13:39;;;;;;;34.45;20.73;;;4.40;99.90;;;;;;5113070;28;20046;-75
2023/01/29 05:16:13;;;;;;;35.72;21.60;;;4.60;99.90;;;;;;5111653;28;20043;-76
2023/01/29 05:18:39;;;;;;;38.95;21.73;;;4.60;99.90;;;;;;5112842;28;20061;-76
2023/01/29 05:21:07;;;;;;;34.13;21.45;;;4.50;99.90;;;;;;5112985;28;20075;-75
2023/01/29 05:23:33;;;;;;;41.67;23.50;;;4.40;99.90;;;;;;5112010;28;20126;-76
2023/01/29 05:25:59;;;;;;;36.90;21.52;;;4.50;99.90;;;;;;5111326;28;20097;-76
2023/01/29 05:28:24;;;;;;;40.65;25.52;;;4.40;99.90;;;;;;5112588;28;20438;-76
2023/01/29 05:30:53;;;;;;;33.88;21.42;;;4.40;99.90;;;;;;5111518;28;20097;-76
2023/01/29 05:33:26;;;;;;;37.55;21.17;;;4.50;99.90;;;;;;5111559;28;20046;-76
2023/01/29 05:35:53;;;;;;;36.60;21.23;;;4.30;99.90;;;;;;5112656;28;20039;-75
2023/01/29 05:38:19;;;;;;;37.75;22.63;;;4.40;99.90;;;;;;5094316;28;20480;-75
2023/01/29 05:40:45;;;;;;;39.35;23.38;;;4.40;99.90;;;;;;5111343;28;20622;-75
2023/01/29 05:43:15;;;;;;;38.30;22.40;;;4.20;99.90;;;;;;5111358;28;20041;-75
2023/01/29 05:45:40;;;;;;;38.05;22.15;;;4.30;99.90;;;;;;5112643;28;20466;-75
2023/01/29 05:48:06;;;;;;;38.10;22.58;;;4.30;99.90;;;;;;5112201;28;20114;-75
2023/01/29 05:50:31;;;;;;;36.65;23.75;;;4.40;99.90;;;;;;5111336;28;20041;-75
2023/01/29 05:53:01;;;;;;;34.33;21.55;;;4.30;99.90;;;;;;5112599;28;20122;-75
2023/01/29 05:55:28;;;;;;;40.70;23.90;;;4.50;99.90;;;;;;5111104;28;20126;-75
2023/01/29 05:57:54;;;;;;;48.28;26.70;;;4.40;99.90;;;;;;5110996;28;20493;-75
2023/01/29 06:00:20;;;;;;;45.78;26.15;;;4.20;99.90;;;;;;5111111;28;20043;-75
2023/01/29 06:02:46;;;;;;;40.72;23.70;;;4.20;99.90;;;;;;5111866;28;20069;-75
2023/01/29 06:05:12;;;;;;;43.80;24.33;;;4.40;99.90;;;;;;5111094;28;20043;-75
2023/01/29 06:07:38;;;;;;;40.88;24.30;;;4.30;99.90;;;;;;5093749;28;20043;-75
2023/01/29 06:10:04;;;;;;;44.88;25.10;;;4.40;99.90;;;;;;5111684;28;20044;-75
2023/01/29 06:12:30;;;;;;;40.20;22.85;;;4.40;99.90;;;;;;5112319;28;20560;-75
2023/01/29 06:14:56;;;;;;;45.10;25.90;;;4.30;99.90;;;;;;5112117;28;20134;-75
2023/01/29 06:17:21;;;;;;;47.35;25.48;;;4.30;99.90;;;;;;5110605;28;20063;-75
2023/01/29 06:19:47;;;;;;;41.53;24.92;;;4.30;99.90;;;;;;5111003;28;20028;-75
2023/01/29 06:22:12;;;;;;;45.33;27.13;;;4.30;99.90;;;;;;5110935;28;20101;-75
2023/01/29 06:24:38;;;;;;;45.05;26.55;;;4.30;99.90;;;;;;5111107;28;20035;-75
2023/01/29 06:27:03;;;;;;;46.28;26.00;;;4.30;99.90;;;;;;5110731;28;20036;-75
2023/01/29 06:29:29;;;;;;;46.08;25.88;;;4.40;99.90;;;;;;5112603;28;20070;-75
2023/01/29 06:31:54;;;;;;;45.00;25.88;;;4.40;99.90;;;;;;5112735;28;20043;-75
2023/01/29 06:34:20;;;;;;;43.80;25.75;;;4.50;99.90;;;;;;5112597;28;20040;-75
2023/01/29 06:36:46;;;;;;;44.90;27.80;;;4.40;99.90;;;;;;5112617;28;20046;-75
2023/01/29 06:39:11;;;;;;;49.42;27.48;;;4.40;99.90;;;;;;5111821;28;20036;-75
2023/01/29 06:41:37;;;;;;;44.08;26.60;;;4.40;99.90;;;;;;5111217;28;20046;-75
2023/01/29 06:44:02;;;;;;;45.83;27.40;;;4.30;99.90;;;;;;5112786;28;20059;-75
2023/01/29 06:46:28;;;;;;;43.35;27.05;;;4.40;99.90;;;;;;5110936;28;20165;-75
2023/01/29 06:48:58;;;;;;;43.88;26.73;;;4.40;99.90;;;;;;5094416;28;20039;-76
2023/01/29 06:51:23;;;;;;;45.17;26.38;;;4.50;99.90;;;;;;5112191;28;20122;-75
2023/01/29 06:53:49;;;;;;;44.40;26.30;;;4.50;99.90;;;;;;5112223;28;20529;-75
2023/01/29 06:56:14;;;;;;;46.15;28.27;;;4.60;99.90;;;;;;5110869;28;20050;-75
2023/01/29 06:58:40;;;;;;;43.92;26.45;;;4.60;99.90;;;;;;5110620;28;20050;-75
2023/01/29 07:01:07;;;;;;;51.10;28.45;;;4.50;99.90;;;;;;5112020;28;20053;-75
2023/01/29 07:03:33;;;;;;;46.92;29.02;;;4.50;99.90;;;;;;5093569;28;20126;-75
2023/01/29 07:05:59;;;;;;;49.60;28.90;;;4.60;99.90;;;;;;5111816;28;20111;-75
2023/01/29 07:08:24;;;;;;;46.08;28.10;;;4.50;99.90;;;;;;5111444;28;20046;-75
2023/01/29 07:10:50;;;;;;;48.60;28.95;;;4.50;99.90;;;;;;5111894;28;20074;-75
2023/01/29 07:13:16;;;;;;;46.13;29.25;;;4.50;99.90;;;;;;5113482;28;20089;-75
2023/01/29 07:15:43;;;;;;;45.38;27.38;;;4.60;99.90;;;;;;5114158;28;20096;-75
2023/01/29 07:18:12;;;;;;;48.58;28.48;;;4.40;99.90;;;;;;5113952;28;20075;-75
2023/01/29 07:20:41;;;;;;;41.28;27.52;;;4.50;99.90;;;;;;5114149;28;20106;-75
2023/01/29 07:23:11;;;;;;;44.72;26.95;;;4.50;99.90;;;;;;5114156;28;20099;-75
2023/01/29 07:25:36;;;;;;;46.95;28.38;;;4.60;99.90;;;;;;5096841;28;20043;-74
2023/01/29 07:28:03;;;;;;;40.40;26.35;;;4.50;99.90;;;;;;5113671;28;20039;-74
2023/01/29 07:30:29;;;;;;;40.92;26.67;;;4.40;99.90;;;;;;5113985;28;20043;-74
2023/01/29 07:32:55;;;;;;;40.40;26.05;;;4.60;99.90;;;;;;5114171;28;20048;-75
2023/01/29 07:35:20;;;;;;;43.63;26.80;;;4.50;99.90;;;;;;5114919;28;20036;-74
2023/01/29 07:37:49;;;;;;;43.38;26.80;;;4.40;99.90;;;;;;5113549;28;20491;-74
2023/01/29 07:40:15;;;;;;;46.33;27.60;;;4.50;99.90;;;;;;5113637;28;20047;-74
2023/01/29 07:42:42;;;;;;;41.50;26.67;;;4.50;99.90;;;;;;5115216;28;20122;-74
2023/01/29 07:45:09;;;;;;;42.50;26.42;;;4.40;99.90;;;;;;5115046;28;20093;-74
2023/01/29 07:47:35;;;;;;;40.78;26.08;;;4.60;99.90;;;;;;5096329;28;20438;-74
2023/01/29 07:50:01;;;;;;;43.95;27.15;;;4.50;99.90;;;;;;5114740;28;20063;-74
2023/01/29 07:52:28;;;;;;;44.85;27.25;;;4.50;99.90;;;;;;5114871;28;20047;-74
2023/01/29 07:54:54;;;;;;;42.47;25.98;;;4.40;99.90;;;;;;5113757;28;20051;-74
2023/01/29 07:57:19;;;;;;;43.28;27.40;;;4.40;99.90;;;;;;5113205;28;20042;-74
2023/01/29 07:59:45;;;;;;;40.55;26.67;;;4.40;99.90;;;;;;5114380;28;20097;-74
2023/01/29 08:02:11;;;;;;;38.10;25.92;;;4.60;99.90;;;;;;5114478;28;20066;-74
2023/01/29 08:04:37;;;;;;;45.97;28.35;;;4.40;99.90;;;;;;5114631;28;20032;-75
2023/01/29 08:07:03;;;;;;;46.85;29.10;;;4.40;99.90;;;;;;5114268;28;20381;-74
2023/01/29 08:09:29;;;;;;;43.70;30.00;;;4.60;99.90;;;;;;5114541;28;20404;-74
2023/01/29 08:11:55;;;;;;;42.85;29.02;;;4.60;99.90;;;;;;5113287;28;20036;-75
2023/01/29 08:14:21;;;;;;;45.15;29.38;;;4.50;99.90;;;;;;5114563;28;20071;-74
2023/01/29 08:16:46;;;;;;;50.05;29.90;;;4.60;99.90;;;;;;5112917;28;20544;-74
2023/01/29 08:19:12;;;;;;;42.95;29.23;;;4.80;99.90;;;;;;5113989;28;20135;-74
2023/01/29 08:21:37;;;;;;;44.28;29.63;;;4.70;99.90;;;;;;5114315;28;20101;-74
2023/01/29 08:24:03;;;;;;;44.92;29.58;;;4.60;99.90;;;;;;5113894;28;20038;-74
2023/01/29 08:26:29;;;;;;;46.00;28.83;;;4.70;99.90;;;;;;5113642;28;20118;-74
2023/01/29 08:28:54;;;;;;;45.92;28.02;;;4.70;99.90;;;;;;5112497;28;20040;-73
2023/01/29 08:31:20;;;;;;;41.25;27.73;;;4.60;99.90;;;;;;5112646;28;20408;-74
2023/01/29 08:33:46;;;;;;;44.63;31.63;;;4.80;99.90;;;;;;5106929;28;20043;-74
2023/01/29 08:36:12;;;;;;;44.83;30.75;;;4.70;99.90;;;;;;5087113;28;20039;-74
2023/01/29 08:38:38;;;;;;;49.17;32.83;;;4.70;99.90;;;;;;5112252;28;20031;-75
2023/01/29 08:41:04;;;;;;;43.33;30.15;;;4.90;99.90;;;;;;5112440;28;20089;-74
2023/01/29 08:43:30;;;;;;;53.83;32.90;;;4.70;99.90;;;;;;5112388;28;20073;-73
2023/01/29 08:45:55;;;;;;;44.47;29.60;;;4.70;99.90;;;;;;5095369;28;20071;-73
2023/01/29 08:48:21;;;;;;;48.00;31.27;;;4.60;99.90;;;;;;5112282;28;20507;-74
2023/01/29 08:50:46;;;;;;;44.38;30.60;;;4.80;99.90;;;;;;5112201;28;20181;-74
2023/01/29 08:53:12;;;;;;;46.47;31.38;;;4.60;99.90;;;;;;5112231;28;20046;-74
2023/01/29 08:55:39;;;;;;;40.22;27.85;;;4.70;99.90;;;;;;5112336;28;20040;-73
2023/01/29 08:58:07;;;;;;;44.22;30.45;;;4.90;99.90;;;;;;5111949;28;20038;-73
2023/01/29 09:00:33;;;;;;;44.67;30.02;;;4.70;99.90;;;;;;5111922;28;20054;-74
2023/01/29 09:02:59;;;;;;;49.13;30.52;;;4.80;99.90;;;;;;5112127;28;20040;-76
2023/01/29 09:05:28;;;;;;;47.72;30.08;;;4.80;99.90;;;;;;5111946;28;20546;-75
2023/01/29 09:07:57;;;;;;;46.13;30.13;;;4.90;99.90;;;;;;5111868;28;20122;-75
2023/01/29 09:10:23;;;;;;;50.13;31.40;;;4.80;99.90;;;;;;5112009;28;20046;-76
2023/01/29 09:12:48;;;;;;;51.45;31.98;;;4.80;99.90;;;;;;5111840;28;20039;-75
2023/01/29 09:15:14;;;;;;;54.67;33.45;;;4.80;99.90;;;;;;5111724;28;20065;-76
2023/01/29 09:17:40;;;;;;;48.53;31.45;;;4.90;99.90;;;;;;5111686;28;20039;-76
2023/01/29 09:20:06;;;;;;;48.72;32.45;;;4.90;99.90;;;;;;5113216;28;20123;-76
2023/01/29 09:22:32;;;;;;;49.22;31.25;;;4.90;99.90;;;;;;5111987;28;20122;-76
2023/01/29 09:24:58;;;;;;;50.20;32.65;;;5.00;99.90;;;;;;5113223;28;20063;-76
2023/01/29 09:27:24;;;;;;;52.78;32.78;;;4.90;99.90;;;;;;5112714;27;20094;-76
2023/01/29 09:29:49;;;;;;;46.20;31.95;;;5.00;99.90;;;;;;5112977;28;20516;-76
2023/01/29 09:32:15;;;;;;;50.10;32.00;;;4.80;99.90;;;;;;5094629;28;20492;-76
2023/01/29 09:34:40;;;;;;;50.47;31.02;;;5.00;99.90;;;;;;5112803;28;20174;-76
2023/01/29 09:37:06;;;;;;;50.72;31.00;;;5.00;99.90;;;;;;5111576;28;20032;-75
2023/01/29 09:39:31;;;;;;;49.50;30.50;;;4.80;99.90;;;;;;5113178;28;20035;-76
2023/01/29 09:42:22;;;;;;;46.70;29.67;;;4.80;99.90;;;;;;5113489;28;20042;-76
2023/01/29 09:44:53;;;;;;;55.63;33.10;;;5.00;99.90;;;;;;5111364;28;20122;-76
2023/01/29 09:47:21;;;;;;;47.60;31.27;;;5.00;99.90;;;;;;5110960;28;20040;-76
2023/01/29 09:49:55;;;;;;;49.17;30.60;;;5.00;99.90;;;;;;5111432;28;20039;-76
2023/01/29 09:52:31;;;;;;;53.60;31.40;;;4.90;99.90;;;;;;5111591;28;20051;-76
2023/01/29 09:55:09;;;;;;;50.60;30.30;;;5.10;99.90;;;;;;5111379;28;20078;-76
2023/01/29 09:57:45;;;;;;;51.63;30.00;;;5.10;99.90;;;;;;5093972;28;20035;-76
2023/01/29 10:00:22;;;;;;;51.40;29.92;;;5.10;99.90;;;;;;5094322;28;20035;-76
2023/01/29 10:03:05;;;;;;;49.75;30.10;;;5.00;99.90;;;;;;5094218;28;20504;-76
2023/01/29 10:06:10;;;;;;;48.50;29.55;;;5.10;99.90;;;;;;5111201;28;20040;-76
2023/01/29 10:08:54;;;;;;;;;;;5.20;99.90;;;;;;5070693;28;20105;-76
2023/01/29 10:11:28;;;;;;;53.40;29.85;;;5.00;99.90;;;;;;5111091;28;19971;-76
2023/01/29 10:14:15;;;;;;;46.53;28.20;;;5.20;99.90;;;;;;5105733;28;20077;-76
2023/01/29 10:16:53;;;;;;;46.55;31.13;;;5.30;99.90;;;;;;5089655;22;20097;-72
2023/01/29 10:19:33;;;;;;;47.15;29.15;;;5.10;99.90;;;;;;5069743;28;20048;-71
2023/01/29 10:22:11;;;;;;;48.75;30.50;;;5.20;99.90;;;;;;5068711;28;20455;-71
2023/01/29 10:25:05;;;;;;;51.92;29.10;;;5.20;99.90;;;;;;5053378;28;20098;-70
2023/01/29 10:27:37;;;;;;;48.28;27.95;;;5.30;99.90;;;;;;5049860;28;20071;-71
2023/01/29 10:30:18;;;;;;;51.53;30.90;;;5.20;99.90;;;;;;5033312;28;20041;-71
2023/01/29 10:32:45;;;;;;;55.88;32.28;;;5.20;99.90;;;;;;5051535;28;20048;-71
2023/01/29 10:35:29;;;;;;;57.00;31.60;;;5.20;99.90;;;;;;5051036;28;20041;-71
2023/01/29 10:38:01;;;;;;;53.10;33.35;;;5.20;99.90;;;;;;5049430;28;20534;-70
2023/01/29 10:40:37;;;;;;;53.15;30.67;;;5.20;99.90;;;;;;5049735;28;20568;-70
2023/01/29 10:43:33;;;;;;;56.85;31.63;;;5.20;99.90;;;;;;5049799;28;20486;-70
2023/01/29 10:46:12;;;;;;;58.00;33.10;;;5.30;99.90;;;;;;5036071;28;20060;-71
2023/01/29 10:48:55;;;;;;;59.05;34.08;;;5.10;99.90;;;;;;5053431;28;20041;-72
2023/01/29 10:51:43;;;;;;;59.25;33.50;;;5.10;99.90;;;;;;5056299;28;20041;-72
2023/01/29 10:54:36;;;;;;;63.17;35.42;;;5.10;99.90;;;;;;5037675;28;20045;-71
2023/01/29 10:57:17;;;;;;;61.63;33.53;;;5.10;99.90;;;;;;5054728;28;20068;-71
2023/01/29 10:59:54;;;;;;;57.67;32.63;;;5.10;99.90;;;;;;5041543;28;20080;-70
2023/01/29 11:02:21;;;;;;;64.78;33.75;;;5.20;99.90;;;;;;5054746;28;20044;-71
2023/01/29 11:04:47;;;;;;;58.38;32.83;;;5.10;99.90;;;;;;5053651;28;20044;-72
2023/01/29 11:07:16;;;;;;;64.15;36.38;;;5.10;99.90;;;;;;5054270;28;20040;-71
2023/01/29 11:09:51;;;;;;;59.25;33.65;;;5.10;99.90;;;;;;5054422;28;20045;-71
2023/01/29 11:12:29;;;;;;;67.18;34.88;;;5.20;99.90;;;;;;5054680;28;20033;-72
2023/01/29 11:15:04;;;;;;;60.55;33.78;;;5.10;99.90;;;;;;5053195;28;20521;-71
2023/01/29 11:17:29;;;;;;;62.22;33.05;;;5.20;99.90;;;;;;5053918;28;20087;-71
2023/01/29 11:19:55;;;;;;;68.85;35.63;;;5.30;99.90;;;;;;5054310;28;20470;-71
2023/01/29 11:22:26;;;;;;;64.30;34.60;;;5.20;99.90;;;;;;5036319;28;20041;-71
2023/01/29 11:25:18;;;;;;;57.22;34.90;;;5.30;99.90;;;;;;5054059;28;20087;-71
2023/01/29 11:27:51;;;;;;;60.85;34.75;;;5.20;99.90;;;;;;5053756;28;20693;-71
2023/01/29 11:30:20;;;;;;;66.45;36.10;;;5.10;99.90;;;;;;5054289;28;20040;-71
2023/01/29 11:32:51;;;;;;;58.85;33.72;;;5.30;99.90;;;;;;5054167;28;20047;-71
2023/01/29 11:35:19;;;;;;;60.75;35.03;;;5.30;99.90;;;;;;5054251;28;20033;-71
2023/01/29 11:37:45;;;;;;;58.38;33.63;;;5.40;99.90;;;;;;5053629;28;20083;-71
2023/01/29 11:40:36;;;;;;;60.10;32.08;;;5.20;99.90;;;;;;5053586;28;20029;-71
2023/01/29 11:43:31;;;;;;;55.22;31.48;;;5.30;99.90;;;;;;5054031;28;20037;-70
2023/01/29 11:46:12;;;;;;;58.88;31.45;;;5.20;99.90;;;;;;5052708;28;20110;-71
2023/01/29 11:48:49;;;;;;;59.45;30.55;;;5.30;99.90;;;;;;5053592;28;20037;-71
2023/01/29 11:51:27;;;;;;;55.72;31.00;;;5.30;99.90;;;;;;5053894;28;20044;-71
2023/01/29 11:54:02;;;;;;;55.95;30.85;;;5.30;99.90;;;;;;5052163;28;20047;-71
2023/01/29 11:56:42;;;;;;;53.15;32.33;;;5.30;99.90;;;;;;5035971;28;20076;-70
2023/01/29 11:59:38;;;;;;;55.70;31.23;;;5.20;99.90;;;;;;5052621;28;20033;-69
2023/01/29 12:02:25;;;;;;;54.25;29.88;;;5.30;99.90;;;;;;5053368;28;20051;-70
2023/01/29 12:04:53;;;;;;;52.35;29.45;;;5.40;99.90;;;;;;5052300;28;20037;-69
2023/01/29 12:07:19;;;;;;;51.97;29.90;;;5.30;99.90;;;;;;5053339;28;20056;-71
2023/01/29 12:09:56;;;;;;;60.72;31.63;;;5.40;99.90;;;;;;5053868;28;20037;-70
2023/01/29 12:12:31;;;;;;;57.22;30.88;;;5.40;99.90;;;;;;5052618;28;20048;-69
2023/01/29 12:15:16;;;;;;;55.17;30.42;;;5.40;99.90;;;;;;5053901;28;20044;-71
2023/01/29 12:17:55;;;;;;;59.40;29.25;;;5.40;99.90;;;;;;5051961;28;20394;-72
2023/01/29 12:20:36;;;;;;;56.13;30.67;;;5.40;99.90;;;;;;5052203;28;20045;-71
2023/01/29 12:23:24;;;;;;;71.78;35.28;;;5.50;99.90;;;;;;5053439;28;20076;-71
2023/01/29 12:26:04;;;;;;;57.58;32.67;;;5.50;99.90;;;;;;5053589;28;20463;-71
2023/01/29 12:28:46;;;;;;;58.75;31.98;;;5.50;99.90;;;;;;5051967;28;20037;-71
2023/01/29 12:31:25;;;;;;;59.55;33.03;;;5.60;99.90;;;;;;5052096;28;20051;-71
2023/01/29 12:34:24;;;;;;;53.33;30.35;;;5.60;99.90;;;;;;5053669;28;20079;-71
2023/01/29 12:36:58;;;;;;;51.47;29.30;;;5.60;99.90;;;;;;5053076;28;20382;-71
2023/01/29 12:39:24;;;;;;;49.97;27.90;;;5.60;99.90;;;;;;5053033;28;20041;-69
2023/01/29 12:42:02;;;;;;;54.05;30.33;;;5.60;99.90;;;;;;5051617;28;20056;-69
2023/01/29 12:44:36;;;;;;;54.45;30.05;;;5.60;99.90;;;;;;5053131;28;20427;-69
2023/01/29 12:47:06;;;;;;;51.60;30.33;;;5.60;99.90;;;;;;5052641;28;20040;-71
2023/01/29 12:49:34;;;;;;;51.22;29.67;;;5.50;99.90;;;;;;5052850;28;20049;-69
2023/01/29 12:52:20;;;;;;;55.35;32.17;;;5.50;99.90;;;;;;5052474;28;20049;-69
2023/01/29 12:54:57;;;;;;;57.38;33.20;;;5.50;99.90;;;;;;5051421;28;20045;-68
2023/01/29 12:57:33;;;;;;;55.33;33.53;;;5.50;99.90;;;;;;5052234;28;20414;-69
2023/01/29 13:00:05;;;;;;;51.92;31.63;;;5.50;99.90;;;;;;5052558;28;20080;-69
2023/01/29 13:02:33;;;;;;;46.97;30.48;;;5.50;99.90;;;;;;5052496;28;20051;-70
2023/01/29 13:05:22;;;;;;;50.05;31.75;;;5.40;99.90;;;;;;5052837;28;20064;-70
2023/01/29 13:07:55;;;;;;;53.72;30.15;;;5.50;99.90;;;;;;5051408;28;20567;-72
2023/01/29 13:10:25;;;;;;;;;;;5.50;99.90;;;;;;5051819;28;20529;-71
2023/01/29 13:13:20;;;;;;;53.00;32.55;;;5.30;99.90;;;;;;5052590;28;19974;-72
2023/01/29 13:15:47;;;;;;;54.33;30.67;;;5.40;99.90;;;;;;5052410;28;20045;-71
2023/01/29 13:18:44;;;;;;;46.08;29.55;;;5.40;99.90;;;;;;5052271;28;20041;-71
2023/01/29 13:21:16;;;;;;;50.80;30.02;;;5.40;99.90;;;;;;5051044;28;20049;-71
2023/01/29 13:23:55;;;;;;;59.38;33.60;;;5.30;99.90;;;;;;5052501;28;20041;-69
2023/01/29 13:26:21;;;;;;;54.60;30.73;;;5.30;99.90;;;;;;5051227;28;20120;-72
2023/01/29 13:28:51;;;;;;;50.28;30.42;;;5.30;99.90;;;;;;5050970;28;20041;-72
2023/01/29 13:31:34;;;;;;;49.95;30.38;;;5.30;99.90;;;;;;5034460;28;20049;-70
2023/01/29 13:34:22;;;;;;;54.33;32.13;;;5.30;99.90;;;;;;5033965;28;20053;-70
2023/01/29 13:36:53;;;;;;;52.58;30.00;;;5.30;99.90;;;;;;5052164;28;20033;-71